sensor_id;sensor_type;location;lat;lon;timestamp;pressure;altitude;pressure_sealevel;temperature;humidity
44988;BME280;35735;52.226;21.254;2023-09-08T00:02:29;101299.38;;;16.25;100.00
44988;BME280;35735;52.226;21.254;2023-09-08T00:07:30;101291.25;;;16.19;100.00
44988;BME280;35735;52.226;21.254;2023-09-08T00:12:30;101288.63;;;16.11;100.00
44988;BME280;35735;52.226;21.254;2023-09-08T00:17:31;101287.75;;;16.07;100.00
44988;BME280;35735;52.226;21.254;2023-09-08T00:22:31;101283.31;;;15.97;100.00
44988;BME280;35735;52.226;21.254;2023-09-08T00:27:32;101278.81;;;15.91;100.00
44988;BME280;35735;52.226;21.254;2023-09-08T00:32:32;101281.50;;;15.93;100.00
44988;BME280;35735;52.226;21.254;2023-09-08T00:37:33;101279.66;;;15.98;100.00
44988;BME280;35735;52.226;21.254;2023-09-08T00:42:34;101276.94;;;15.98;100.00
44988;BME280;35735;52.226;21.254;2023-09-08T00:47:34;101277.87;;;15.94;100.00
44988;BME280;35735;52.226;21.254;2023-09-08T00:52:35;101279.69;;;15.95;100.00
44988;BME280;35735;52.226;21.254;2023-09-08T00:57:35;101284.25;;;15.93;100.00
44988;BME280;35735;52.226;21.254;2023-09-08T01:02:36;101286.03;;;15.96;100.00
44988;BME280;35735;52.226;21.254;2023-09-08T01:07:37;101286.03;;;15.96;100.00
44988;BME280;35735;52.226;21.254;2023-09-08T01:12:37;101290.66;;;15.86;100.00
44988;BME280;35735;52.226;21.254;2023-09-08T01:17:38;101287.97;;;15.80;100.00
44988;BME280;35735;52.226;21.254;2023-09-08T01:22:50;101279.81;;;15.80;100.00
44988;BME280;35735;52.226;21.254;2023-09-08T01:28:11;101274.37;;;15.80;100.00
44988;BME280;35735;52.226;21.254;2023-09-08T01:33:12;101268.94;;;15.77;100.00
44988;BME280;35735;52.226;21.254;2023-09-08T01:38:13;101276.19;;;15.73;100.00
44988;BME280;35735;52.226;21.254;2023-09-08T01:43:13;101267.94;;;15.88;100.00
44988;BME280;35735;52.226;21.254;2023-09-08T01:48:14;101266.97;;;15.97;100.00
44988;BME280;35735;52.226;21.254;2023-09-08T01:53:14;101259.72;;;15.96;100.00
44988;BME280;35735;52.226;21.254;2023-09-08T01:58:15;101256.16;;;15.88;100.00
44988;BME280;35735;52.226;21.254;2023-09-08T02:03:15;101258.03;;;15.81;100.00
44988;BME280;35735;52.226;21.254;2023-09-08T02:08:16;101249.84;;;15.83;100.00
44988;BME280;35735;52.226;21.254;2023-09-08T02:13:16;101253.53;;;15.77;100.00
44988;BME280;35735;52.226;21.254;2023-09-08T02:18:17;101257.13;;;15.79;100.00
44988;BME280;35735;52.226;21.254;2023-09-08T02:23:17;101257.03;;;15.88;100.00
44988;BME280;35735;52.226;21.254;2023-09-08T02:28:18;101260.63;;;15.93;100.00
44988;BME280;35735;52.226;21.254;2023-09-08T02:33:18;101261.56;;;15.91;100.00
44988;BME280;35735;52.226;21.254;2023-09-08T02:38:19;101254.34;;;15.87;100.00
44988;BME280;35735;52.226;21.254;2023-09-08T02:43:19;101254.31;;;15.90;100.00
44988;BME280;35735;52.226;21.254;2023-09-08T02:48:20;101243.53;;;15.81;100.00
44988;BME280;35735;52.226;21.254;2023-09-08T02:53:21;101239.91;;;15.79;100.00
44988;BME280;35735;52.226;21.254;2023-09-08T02:58:23;101232.66;;;15.78;100.00
44988;BME280;35735;52.226;21.254;2023-09-08T03:03:24;101239.00;;;15.78;100.00
44988;BME280;35735;52.226;21.254;2023-09-08T03:08:24;101234.50;;;15.69;100.00
44988;BME280;35735;52.226;21.254;2023-09-08T03:13:25;101232.75;;;15.62;100.00
44988;BME280;35735;52.226;21.254;2023-09-08T03:18:25;101227.31;;;15.62;100.00
44988;BME280;35735;52.226;21.254;2023-09-08T03:23:26;101220.94;;;15.63;100.00
44988;BME280;35735;52.226;21.254;2023-09-08T03:28:26;101217.44;;;15.50;100.00
44988;BME280;35735;52.226;21.254;2023-09-08T03:33:27;101214.72;;;15.50;100.00
44988;BME280;35735;52.226;21.254;2023-09-08T03:38:28;101209.31;;;15.40;100.00
44988;BME280;35735;52.226;21.254;2023-09-08T03:43:28;101213.00;;;15.38;100.00
44988;BME280;35735;52.226;21.254;2023-09-08T03:48:29;101220.19;;;15.43;100.00
44988;BME280;35735;52.226;21.254;2023-09-08T03:53:29;101225.66;;;15.40;100.00
44988;BME280;35735;52.226;21.254;2023-09-08T03:58:31;101218.47;;;15.32;100.00
44988;BME280;35735;52.226;21.254;2023-09-08T04:03:31;101216.63;;;15.31;100.00
44988;BME280;35735;52.226;21.254;2023-09-08T04:08:32;101213.06;;;15.20;100.00
44988;BME280;35735;52.226;21.254;2023-09-08T04:13:32;101209.50;;;15.15;100.00
44988;BME280;35735;52.226;21.254;2023-09-08T04:18:33;101209.50;;;15.15;100.00
44988;BME280;35735;52.226;21.254;2023-09-08T04:23:34;101205.00;;;15.12;100.00
44988;BME280;35735;52.226;21.254;2023-09-08T04:28:34;101212.19;;;15.16;100.00
44988;BME280;35735;52.226;21.254;2023-09-08T04:33:35;101205.84;;;15.19;100.00
44988;BME280;35735;52.226;21.254;2023-09-08T04:38:35;101203.16;;;15.17;100.00
44988;BME280;35735;52.226;21.254;2023-09-08T04:43:36;101203.13;;;15.24;100.00
44988;BME280;35735;52.226;21.254;2023-09-08T04:48:36;101208.47;;;15.33;100.00
44988;BME280;35735;52.226;21.254;2023-09-08T04:53:37;101209.28;;;15.46;100.00
44988;BME280;35735;52.226;21.254;2023-09-08T04:58:37;101204.62;;;15.60;100.00
44988;BME280;35735;52.226;21.254;2023-09-08T05:03:38;101205.41;;;15.74;100.00
44988;BME280;35735;52.226;21.254;2023-09-08T05:08:39;101203.47;;;15.92;100.00
44988;BME280;35735;52.226;21.254;2023-09-08T05:13:39;101202.34;;;16.13;100.00
44988;BME280;35735;52.226;21.254;2023-09-08T05:18:40;101200.16;;;16.47;100.00
44988;BME280;35735;52.226;21.254;2023-09-08T05:23:41;101188.81;;;16.81;100.00
44988;BME280;35735;52.226;21.254;2023-09-08T05:28:41;101199.22;;;17.18;100.00
44988;BME280;35735;52.226;21.254;2023-09-08T05:33:42;101199.59;;;17.54;100.00
44988;BME280;35735;52.226;21.254;2023-09-08T05:38:43;101193.47;;;17.94;100.00
44988;BME280;35735;52.226;21.254;2023-09-08T05:43:44;101194.69;;;18.26;100.00
44988;BME280;35735;52.226;21.254;2023-09-08T05:48:44;101194.84;;;18.62;100.00
44988;BME280;35735;52.226;21.254;2023-09-08T05:53:45;101189.81;;;18.86;100.00
44988;BME280;35735;52.226;21.254;2023-09-08T05:58:45;101190.19;;;19.11;100.00
44988;BME280;35735;52.226;21.254;2023-09-08T06:03:46;101193.03;;;19.44;100.00
44988;BME280;35735;52.226;21.254;2023-09-08T06:08:47;101205.88;;;19.79;100.00
44988;BME280;35735;52.226;21.254;2023-09-08T06:13:47;101196.09;;;20.05;100.00
44988;BME280;35735;52.226;21.254;2023-09-08T06:18:48;101193.34;;;20.38;100.00
44988;BME280;35735;52.226;21.254;2023-09-08T06:23:49;101193.31;;;20.71;100.00
44988;BME280;35735;52.226;21.254;2023-09-08T06:28:49;101191.34;;;21.06;100.00
44988;BME280;35735;52.226;21.254;2023-09-08T06:33:50;101192.16;;;21.38;100.00
44988;BME280;35735;52.226;21.254;2023-09-08T06:38:50;101192.38;;;21.60;100.00
44988;BME280;35735;52.226;21.254;2023-09-08T06:43:51;101193.44;;;21.82;100.00
44988;BME280;35735;52.226;21.254;2023-09-08T06:48:51;101194.00;;;22.19;100.00
44988;BME280;35735;52.226;21.254;2023-09-08T06:53:55;101200.97;;;22.54;100.00
44988;BME280;35735;52.226;21.254;2023-09-08T06:58:56;101204.62;;;22.79;100.00
44988;BME280;35735;52.226;21.254;2023-09-08T07:03:57;101203.69;;;23.03;100.00
44988;BME280;35735;52.226;21.254;2023-09-08T07:08:57;101204.50;;;23.30;100.00
44988;BME280;35735;52.226;21.254;2023-09-08T07:13:58;101189.47;;;23.60;100.00
44988;BME280;35735;52.226;21.254;2023-09-08T07:18:58;101192.06;;;23.86;100.00
44988;BME280;35735;52.226;21.254;2023-09-08T07:23:59;101190.91;;;24.13;100.00
44988;BME280;35735;52.226;21.254;2023-09-08T07:29:00;101189.72;;;24.39;99.81
44988;BME280;35735;52.226;21.254;2023-09-08T07:34:00;101196.63;;;24.70;98.73
44988;BME280;35735;52.226;21.254;2023-09-08T07:39:01;101192.72;;;24.94;97.67
44988;BME280;35735;52.226;21.254;2023-09-08T07:44:01;101184.50;;;25.12;96.49
44988;BME280;35735;52.226;21.254;2023-09-08T07:49:02;101193.06;;;25.26;95.68
44988;BME280;35735;52.226;21.254;2023-09-08T07:54:03;101186.59;;;25.45;95.41
44988;BME280;35735;52.226;21.254;2023-09-08T07:59:03;101190.91;;;25.69;94.73
44988;BME280;35735;52.226;21.254;2023-09-08T08:04:04;101191.44;;;25.95;93.74
44988;BME280;35735;52.226;21.254;2023-09-08T08:09:05;101183.13;;;26.13;93.18
44988;BME280;35735;52.226;21.254;2023-09-08T08:14:05;101185.75;;;26.33;92.49
44988;BME280;35735;52.226;21.254;2023-09-08T08:19:06;101181.88;;;26.53;91.46
44988;BME280;35735;52.226;21.254;2023-09-08T08:24:06;101183.03;;;26.67;91.83
44988;BME280;35735;52.226;21.254;2023-09-08T08:29:07;101184.84;;;26.84;90.40
44988;BME280;35735;52.226;21.254;2023-09-08T08:34:07;101189.16;;;26.89;89.80
44988;BME280;35735;52.226;21.254;2023-09-08T08:39:08;101188.94;;;27.10;89.44
44988;BME280;35735;52.226;21.254;2023-09-08T08:44:08;101189.91;;;27.25;88.34
44988;BME280;35735;52.226;21.254;2023-09-08T08:49:09;101191.38;;;27.32;87.84
44988;BME280;35735;52.226;21.254;2023-09-08T08:54:15;101194.44;;;27.43;87.21
44988;BME280;35735;52.226;21.254;2023-09-08T08:59:16;101186.97;;;27.60;86.73
44988;BME280;35735;52.226;21.254;2023-09-08T09:04:17;101181.50;;;27.74;86.18
44988;BME280;35735;52.226;21.254;2023-09-08T09:09:18;101183.53;;;27.86;85.66
44988;BME280;35735;52.226;21.254;2023-09-08T09:14:19;101175.38;;;27.99;85.57
44988;BME280;35735;52.226;21.254;2023-09-08T09:19:21;101167.91;;;28.16;84.19
44988;BME280;35735;52.226;21.254;2023-09-08T09:24:36;101158.69;;;28.15;83.67
44988;BME280;35735;52.226;21.254;2023-09-08T09:29:49;101152.56;;;28.24;83.36
44988;BME280;35735;52.226;21.254;2023-09-08T09:34:53;101150.31;;;28.45;83.21
44988;BME280;35735;52.226;21.254;2023-09-08T09:39:59;101150.44;;;28.58;83.75
44988;BME280;35735;52.226;21.254;2023-09-08T09:45:00;101144.69;;;28.61;83.20
44988;BME280;35735;52.226;21.254;2023-09-08T09:50:01;101144.78;;;28.74;82.80
44988;BME280;35735;52.226;21.254;2023-09-08T09:55:02;101148.47;;;28.89;81.47
44988;BME280;35735;52.226;21.254;2023-09-08T10:00:03;101139.72;;;28.81;80.95
44988;BME280;35735;52.226;21.254;2023-09-08T10:05:11;101140.91;;;28.91;80.13
44988;BME280;35735;52.226;21.254;2023-09-08T10:10:12;101127.88;;;29.06;79.33
44988;BME280;35735;52.226;21.254;2023-09-08T10:15:13;101125.50;;;29.00;78.55
44988;BME280;35735;52.226;21.254;2023-09-08T10:20:16;101120.34;;;29.08;78.17
44988;BME280;35735;52.226;21.254;2023-09-08T10:25:20;101122.44;;;29.05;76.70
44988;BME280;35735;52.226;21.254;2023-09-08T10:30:21;101120.78;;;28.88;76.61
44988;BME280;35735;52.226;21.254;2023-09-08T10:35:23;101118.72;;;28.77;74.06
44988;BME280;35735;52.226;21.254;2023-09-08T10:40:24;101118.09;;;28.72;73.62
44988;BME280;35735;52.226;21.254;2023-09-08T10:45:25;101115.13;;;28.89;73.38
44988;BME280;35735;52.226;21.254;2023-09-08T10:50:34;101110.94;;;28.96;71.63
44988;BME280;35735;52.226;21.254;2023-09-08T10:55:42;101110.78;;;28.71;71.79
44988;BME280;35735;52.226;21.254;2023-09-08T11:00:51;101093.47;;;28.51;72.54
44988;BME280;35735;52.226;21.254;2023-09-08T11:05:52;101091.34;;;28.71;72.07
44988;BME280;35735;52.226;21.254;2023-09-08T11:10:52;101087.44;;;28.73;71.60
44988;BME280;35735;52.226;21.254;2023-09-08T11:15:54;101076.72;;;28.81;72.50
44988;BME280;35735;52.226;21.254;2023-09-08T11:20:55;101079.38;;;28.97;70.48
44988;BME280;35735;52.226;21.254;2023-09-08T11:25:57;101078.91;;;28.91;71.18
44988;BME280;35735;52.226;21.254;2023-09-08T11:30:57;101071.03;;;28.97;71.43
44988;BME280;35735;52.226;21.254;2023-09-08T11:35:58;101066.25;;;29.14;71.55
44988;BME280;35735;52.226;21.254;2023-09-08T11:40:58;101066.53;;;29.09;71.56
44988;BME280;35735;52.226;21.254;2023-09-08T11:45:59;101075.91;;;28.94;71.70
44988;BME280;35735;52.226;21.254;2023-09-08T11:51:00;101071.50;;;28.77;72.28
44988;BME280;35735;52.226;21.254;2023-09-08T11:56:00;101061.97;;;28.52;71.45
44988;BME280;35735;52.226;21.254;2023-09-08T12:01:02;101061.84;;;28.39;71.92
44988;BME280;35735;52.226;21.254;2023-09-08T12:06:03;101061.56;;;28.15;72.13
44988;BME280;35735;52.226;21.254;2023-09-08T12:11:04;101057.19;;;27.97;72.55
44988;BME280;35735;52.226;21.254;2023-09-08T12:16:18;101044.03;;;27.84;73.30
44988;BME280;35735;52.226;21.254;2023-09-08T12:21:19;101040.37;;;27.84;73.59
44988;BME280;35735;52.226;21.254;2023-09-08T12:26:20;101034.13;;;27.80;73.89
44988;BME280;35735;52.226;21.254;2023-09-08T12:31:22;101030.44;;;27.80;74.11
44988;BME280;35735;52.226;21.254;2023-09-08T12:36:23;101024.69;;;27.99;74.11
44988;BME280;35735;52.226;21.254;2023-09-08T12:41:23;101024.06;;;28.08;74.26
44988;BME280;35735;52.226;21.254;2023-09-08T12:46:25;101015.66;;;28.24;73.53
44988;BME280;35735;52.226;21.254;2023-09-08T12:51:25;101015.78;;;28.37;73.21
44988;BME280;35735;52.226;21.254;2023-09-08T12:56:26;101014.47;;;28.42;72.60
44988;BME280;35735;52.226;21.254;2023-09-08T13:01:28;101007.69;;;28.46;73.15
44988;BME280;35735;52.226;21.254;2023-09-08T13:06:29;101006.81;;;28.46;72.26
44988;BME280;35735;52.226;21.254;2023-09-08T13:11:29;100989.97;;;28.49;72.25
44988;BME280;35735;52.226;21.254;2023-09-08T13:16:30;100987.19;;;28.35;71.18
44988;BME280;35735;52.226;21.254;2023-09-08T13:21:31;100985.22;;;28.08;71.80
44988;BME280;35735;52.226;21.254;2023-09-08T13:26:31;100981.66;;;28.06;72.77
44988;BME280;35735;52.226;21.254;2023-09-08T13:31:32;100976.31;;;28.03;72.30
44988;BME280;35735;52.226;21.254;2023-09-08T13:36:32;100967.59;;;27.95;72.64
44988;BME280;35735;52.226;21.254;2023-09-08T13:41:53;100957.25;;;27.82;73.49
44988;BME280;35735;52.226;21.254;2023-09-08T13:46:55;100959.44;;;27.77;73.05
44988;BME280;35735;52.226;21.254;2023-09-08T13:51:55;100957.34;;;27.66;73.37
44988;BME280;35735;52.226;21.254;2023-09-08T13:57:00;100955.06;;;27.59;73.44
44988;BME280;35735;52.226;21.254;2023-09-08T14:02:03;100946.16;;;27.53;74.74
44988;BME280;35735;52.226;21.254;2023-09-08T14:07:03;100949.19;;;27.49;73.84
44988;BME280;35735;52.226;21.254;2023-09-08T14:12:04;100942.88;;;27.47;73.41
44988;BME280;35735;52.226;21.254;2023-09-08T14:17:05;100932.75;;;27.46;72.95
44988;BME280;35735;52.226;21.254;2023-09-08T14:22:06;100924.53;;;27.44;72.40
44988;BME280;35735;52.226;21.254;2023-09-08T14:27:06;100929.66;;;27.36;72.24
44988;BME280;35735;52.226;21.254;2023-09-08T14:32:07;100925.22;;;27.33;73.14
44988;BME280;35735;52.226;21.254;2023-09-08T14:37:07;100928.34;;;27.27;72.41
44988;BME280;35735;52.226;21.254;2023-09-08T14:42:08;100914.56;;;27.26;73.06
44988;BME280;35735;52.226;21.254;2023-09-08T14:47:08;100911.00;;;27.24;73.01
44988;BME280;35735;52.226;21.254;2023-09-08T14:52:09;100910.78;;;27.12;72.97
44988;BME280;35735;52.226;21.254;2023-09-08T14:57:09;100902.84;;;27.06;73.44
44988;BME280;35735;52.226;21.254;2023-09-08T15:02:10;100902.94;;;27.05;73.76
44988;BME280;35735;52.226;21.254;2023-09-08T15:07:11;100890.09;;;27.04;73.68
44988;BME280;35735;52.226;21.254;2023-09-08T15:12:11;100893.72;;;27.04;73.55
44988;BME280;35735;52.226;21.254;2023-09-08T15:17:12;100888.37;;;27.01;73.69
44988;BME280;35735;52.226;21.254;2023-09-08T15:22:12;100880.47;;;26.95;73.71
44988;BME280;35735;52.226;21.254;2023-09-08T15:27:13;100883.41;;;26.92;74.41
44988;BME280;35735;52.226;21.254;2023-09-08T15:32:14;100875.28;;;26.89;74.56
44988;BME280;35735;52.226;21.254;2023-09-08T15:37:14;100879.03;;;26.88;74.78
44988;BME280;35735;52.226;21.254;2023-09-08T15:42:15;100874.69;;;26.84;74.61
44988;BME280;35735;52.226;21.254;2023-09-08T15:47:15;100871.13;;;26.82;74.58
44988;BME280;35735;52.226;21.254;2023-09-08T15:52:16;100868.53;;;26.78;75.10
44988;BME280;35735;52.226;21.254;2023-09-08T15:57:16;100858.62;;;26.74;75.53
44988;BME280;35735;52.226;21.254;2023-09-08T16:02:17;100864.34;;;26.71;75.97
44988;BME280;35735;52.226;21.254;2023-09-08T16:07:17;100866.31;;;26.69;75.84
44988;BME280;35735;52.226;21.254;2023-09-08T16:12:18;100857.41;;;26.64;76.56
44988;BME280;35735;52.226;21.254;2023-09-08T16:17:18;100858.81;;;26.55;76.21
44988;BME280;35735;52.226;21.254;2023-09-08T16:22:19;100860.09;;;26.50;76.48
44988;BME280;35735;52.226;21.254;2023-09-08T16:27:19;100847.97;;;26.36;77.82
44988;BME280;35735;52.226;21.254;2023-09-08T16:32:20;100858.94;;;26.22;80.11
44988;BME280;35735;52.226;21.254;2023-09-08T16:37:21;100854.22;;;26.08;81.66
44988;BME280;35735;52.226;21.254;2023-09-08T16:42:21;100860.78;;;25.89;82.95
44988;BME280;35735;52.226;21.254;2023-09-08T16:47:22;100857.53;;;25.65;84.36
44988;BME280;35735;52.226;21.254;2023-09-08T16:52:22;100855.00;;;25.45;85.32
44988;BME280;35735;52.226;21.254;2023-09-08T16:57:23;100856.00;;;25.26;86.86
44988;BME280;35735;52.226;21.254;2023-09-08T17:02:23;100857.94;;;25.07;87.57
44988;BME280;35735;52.226;21.254;2023-09-08T17:07:24;100859.09;;;24.85;88.18
44988;BME280;35735;52.226;21.254;2023-09-08T17:12:24;100866.72;;;24.63;88.62
44988;BME280;35735;52.226;21.254;2023-09-08T17:17:25;100854.06;;;24.39;89.26
44988;BME280;35735;52.226;21.254;2023-09-08T17:22:25;100863.63;;;24.13;90.32
44988;BME280;35735;52.226;21.254;2023-09-08T17:27:26;100858.44;;;23.88;91.32
44988;BME280;35735;52.226;21.254;2023-09-08T17:32:27;100856.75;;;23.65;92.37
44988;BME280;35735;52.226;21.254;2023-09-08T17:37:27;100856.00;;;23.42;93.17
44988;BME280;35735;52.226;21.254;2023-09-08T17:42:28;100856.84;;;23.24;93.99
44988;BME280;35735;52.226;21.254;2023-09-08T17:47:28;100852.28;;;23.02;94.54
44988;BME280;35735;52.226;21.254;2023-09-08T17:52:29;100858.88;;;22.78;95.05
44988;BME280;35735;52.226;21.254;2023-09-08T17:57:30;100877.25;;;22.55;95.68
44988;BME280;35735;52.226;21.254;2023-09-08T18:02:32;100875.03;;;22.43;96.10
44988;BME280;35735;52.226;21.254;2023-09-08T18:07:33;100870.41;;;22.21;96.61
44988;BME280;35735;52.226;21.254;2023-09-08T18:12:33;100876.78;;;21.99;97.18
44988;BME280;35735;52.226;21.254;2023-09-08T18:17:34;100871.00;;;21.83;97.64
44988;BME280;35735;52.226;21.254;2023-09-08T18:22:34;100865.31;;;21.64;98.18
44988;BME280;35735;52.226;21.254;2023-09-08T18:27:35;100862.44;;;21.44;98.68
44988;BME280;35735;52.226;21.254;2023-09-08T18:32:35;100862.22;;;21.25;99.44
44988;BME280;35735;52.226;21.254;2023-09-08T18:37:36;100855.38;;;21.12;99.83
44988;BME280;35735;52.226;21.254;2023-09-08T18:42:36;100860.66;;;20.92;100.00
44988;BME280;35735;52.226;21.254;2023-09-08T18:47:37;100865.88;;;20.75;100.00
44988;BME280;35735;52.226;21.254;2023-09-08T18:52:37;100856.78;;;20.73;100.00
44988;BME280;35735;52.226;21.254;2023-09-08T18:57:38;100857.22;;;20.59;100.00
44988;BME280;35735;52.226;21.254;2023-09-08T19:02:39;100847.91;;;20.38;100.00
44988;BME280;35735;52.226;21.254;2023-09-08T19:07:39;100855.88;;;20.17;100.00
44988;BME280;35735;52.226;21.254;2023-09-08T19:12:40;100847.34;;;20.00;100.00
44988;BME280;35735;52.226;21.254;2023-09-08T19:17:41;100845.84;;;19.90;100.00
44988;BME280;35735;52.226;21.254;2023-09-08T19:22:41;100848.69;;;19.87;100.00
44988;BME280;35735;52.226;21.254;2023-09-08T19:27:42;100843.53;;;19.76;100.00
44988;BME280;35735;52.226;21.254;2023-09-08T19:32:43;100845.06;;;19.55;100.00
44988;BME280;35735;52.226;21.254;2023-09-08T19:37:44;100836.38;;;19.40;100.00
44988;BME280;35735;52.226;21.254;2023-09-08T19:42:44;100833.03;;;19.29;100.00
44988;BME280;35735;52.226;21.254;2023-09-08T19:47:45;100835.03;;;19.24;100.00
44988;BME280;35735;52.226;21.254;2023-09-08T19:52:45;100837.81;;;19.22;100.00
44988;BME280;35735;52.226;21.254;2023-09-08T19:57:46;100823.28;;;19.20;100.00
44988;BME280;35735;52.226;21.254;2023-09-08T20:02:47;100827.41;;;19.04;100.00
44988;BME280;35735;52.226;21.254;2023-09-08T20:07:47;100824.06;;;18.93;100.00
44988;BME280;35735;52.226;21.254;2023-09-08T20:12:51;100830.59;;;18.87;100.00
44988;BME280;35735;52.226;21.254;2023-09-08T20:17:51;100829.19;;;18.70;100.00
44988;BME280;35735;52.226;21.254;2023-09-08T20:22:52;100828.81;;;18.51;100.00
44988;BME280;35735;52.226;21.254;2023-09-08T20:27:52;100829.78;;;18.49;100.00
44988;BME280;35735;52.226;21.254;2023-09-08T20:32:53;100830.84;;;18.43;100.00
44988;BME280;35735;52.226;21.254;2023-09-08T20:37:53;100822.91;;;18.32;100.00
44988;BME280;35735;52.226;21.254;2023-09-08T20:42:54;100833.09;;;18.26;100.00
44988;BME280;35735;52.226;21.254;2023-09-08T20:47:55;100827.00;;;18.16;100.00
44988;BME280;35735;52.226;21.254;2023-09-08T20:52:55;100839.88;;;18.11;100.00
44988;BME280;35735;52.226;21.254;2023-09-08T20:57:56;100837.00;;;18.15;100.00
44988;BME280;35735;52.226;21.254;2023-09-08T21:02:56;100840.97;;;18.02;100.00
44988;BME280;35735;52.226;21.254;2023-09-08T21:07:57;100841.16;;;17.94;100.00
44988;BME280;35735;52.226;21.254;2023-09-08T21:12:57;100837.91;;;17.75;100.00
44988;BME280;35735;52.226;21.254;2023-09-08T21:17:58;100833.69;;;17.60;100.00
44988;BME280;35735;52.226;21.254;2023-09-08T21:22:59;100831.28;;;17.47;100.00
44988;BME280;35735;52.226;21.254;2023-09-08T21:27:59;100829.56;;;17.43;100.00
44988;BME280;35735;52.226;21.254;2023-09-08T21:33:00;100828.94;;;17.30;100.00
44988;BME280;35735;52.226;21.254;2023-09-08T21:38:01;100823.56;;;17.25;100.00
44988;BME280;35735;52.226;21.254;2023-09-08T21:43:01;100838.31;;;17.16;100.00
44988;BME280;35735;52.226;21.254;2023-09-08T21:48:02;100834.72;;;17.14;100.00
44988;BME280;35735;52.226;21.254;2023-09-08T21:53:03;100832.19;;;17.03;100.00
44988;BME280;35735;52.226;21.254;2023-09-08T21:58:06;100825.25;;;16.87;100.00
44988;BME280;35735;52.226;21.254;2023-09-08T22:03:06;100827.94;;;16.89;100.00
44988;BME280;35735;52.226;21.254;2023-09-08T22:08:07;100819.78;;;16.87;100.00
44988;BME280;35735;52.226;21.254;2023-09-08T22:13:08;100817.25;;;16.76;100.00
44988;BME280;35735;52.226;21.254;2023-09-08T22:18:08;100824.66;;;16.68;100.00
44988;BME280;35735;52.226;21.254;2023-09-08T22:23:09;100811.28;;;16.56;100.00
44988;BME280;35735;52.226;21.254;2023-09-08T22:28:09;100819.50;;;16.53;100.00
44988;BME280;35735;52.226;21.254;2023-09-08T22:33:10;100822.41;;;16.42;100.00
44988;BME280;35735;52.226;21.254;2023-09-08T22:38:11;100823.37;;;16.39;100.00
44988;BME280;35735;52.226;21.254;2023-09-08T22:43:11;100824.00;;;16.54;100.00
44988;BME280;35735;52.226;21.254;2023-09-08T22:48:12;100821.44;;;16.47;100.00
44988;BME280;35735;52.226;21.254;2023-09-08T22:53:12;100818.88;;;16.37;100.00
44988;BME280;35735;52.226;21.254;2023-09-08T22:58:13;100820.03;;;16.22;100.00
44988;BME280;35735;52.226;21.254;2023-09-08T23:03:14;100805.59;;;16.17;100.00
44988;BME280;35735;52.226;21.254;2023-09-08T23:08:14;100811.81;;;16.25;100.00
44988;BME280;35735;52.226;21.254;2023-09-08T23:13:15;100805.56;;;16.18;100.00
44988;BME280;35735;52.226;21.254;2023-09-08T23:18:16;100805.84;;;16.03;100.00
44988;BME280;35735;52.226;21.254;2023-09-08T23:23:16;100810.41;;;16.02;100.00
44988;BME280;35735;52.226;21.254;2023-09-08T23:28:17;100803.34;;;15.89;100.00
44988;BME280;35735;52.226;21.254;2023-09-08T23:33:17;100811.75;;;15.72;100.00
44988;BME280;35735;52.226;21.254;2023-09-08T23:38:18;100813.69;;;15.62;100.00
44988;BME280;35735;52.226;21.254;2023-09-08T23:43:20;100813.69;;;15.62;100.00
44988;BME280;35735;52.226;21.254;2023-09-08T23:48:20;100814.69;;;15.55;100.00
44988;BME280;35735;52.226;21.254;2023-09-08T23:53:21;100822.12;;;15.44;100.00
44988;BME280;35735;52.226;21.254;2023-09-08T23:58:22;100814.03;;;15.37;100.00
